Time;durP1;ratioP1;P1;durP2;ratioP2;P2;SDS_P1;SDS_P2;PMS_P1;PMS_P2;Temp;Humidity;BMP_temperature;BMP_pressure;BME280_temperature;BME280_humidity;BME280_pressure;Samples;Min_cycle;Max_cycle;Signal;HPM_P1;HPM_P2
2023/06/22 00:01:50;;;;;;;12.05;5.93;;;;;;;19.89;90.77;101435.44;5055331;28;20080;-67
2023/06/22 00:04:15;;;;;;;12.32;4.97;;;;;;;19.92;90.86;101435.78;5036848;28;20545;-67
2023/06/22 00:06:42;;;;;;;8.55;4.72;;;;;;;19.82;91.60;101432.06;5055613;28;20033;-67
2023/06/22 00:09:08;;;;;;;15.70;4.88;;;;;;;19.74;91.93;101433.28;5040408;28;20033;-67
2023/06/22 00:11:33;;;;;;;11.35;5.15;;;;;;;19.83;92.07;101436.44;5056578;28;20051;-66
2023/06/22 00:14:03;;;;;;;9.57;4.38;;;;;;;19.62;93.19;101427.84;5055705;28;20033;-67
2023/06/22 00:16:29;;;;;;;12.65;4.88;;;;;;;19.60;92.98;101434.59;5056629;28;20480;-67
2023/06/22 00:18:54;;;;;;;14.77;5.05;;;;;;;19.71;92.35;101429.13;5055113;28;20044;-67
2023/06/22 00:21:20;;;;;;;13.02;5.50;;;;;;;19.78;91.92;101433.63;5055346;28;20033;-67
2023/06/22 00:23:47;;;;;;;14.32;5.03;;;;;;;19.70;92.26;101432.09;5055043;28;20029;-67
2023/06/22 00:26:13;;;;;;;10.90;4.63;;;;;;;19.54;92.37;101411.03;5055992;28;20044;-67
2023/06/22 00:28:38;;;;;;;11.57;4.80;;;;;;;19.60;92.64;101419.06;5038240;28;20033;-67
2023/06/22 00:31:04;;;;;;;12.32;4.88;;;;;;;19.60;92.30;101420.94;5056105;28;20021;-67
2023/06/22 00:33:29;;;;;;;13.30;4.53;;;;;;;19.41;93.13;101420.34;5056287;28;20033;-66
2023/06/22 00:35:54;;;;;;;13.95;4.90;;;;;;;19.39;92.68;101425.19;5054639;28;20040;-67
2023/06/22 00:38:20;;;;;;;10.75;4.65;;;;;;;19.47;91.96;101427.56;5055436;28;20041;-66
2023/06/22 00:40:46;;;;;;;11.18;4.40;;;;;;;19.43;92.17;101424.47;5055453;28;20025;-67
2023/06/22 00:43:11;;;;;;;12.02;4.63;;;;;;;19.40;92.35;101421.38;5037350;28;20379;-67
2023/06/22 00:45:37;;;;;;;13.05;4.47;;;;;;;19.38;92.59;101420.81;5052969;28;20466;-67
2023/06/22 00:48:03;;;;;;;10.63;4.43;;;;;;;19.34;92.97;101425.13;5055904;28;20033;-67
2023/06/22 00:50:33;;;;;;;13.48;4.72;;;;;;;19.32;92.85;101413.59;5056456;28;20060;-67
2023/06/22 00:53:00;;;;;;;12.68;4.55;;;;;;;19.24;93.71;101426.56;5055741;28;20029;-66
2023/06/22 00:55:26;;;;;;;10.98;4.10;;;;;;;19.14;94.17;101423.63;5056244;28;20071;-67
2023/06/22 00:57:56;;;;;;;7.95;4.22;;;;;;;19.31;93.49;101425.59;5055880;28;20537;-67
2023/06/22 01:00:24;;;;;;;10.43;4.40;;;;;;;19.31;93.72;101425.59;5057848;28;20488;-67
2023/06/22 01:02:51;;;;;;;11.98;4.35;;;;;;;19.30;93.94;101429.38;5057034;28;20032;-67
2023/06/22 01:05:18;;;;;;;13.80;4.65;;;;;;;19.25;94.50;101424.66;5056696;28;20032;-67
2023/06/22 01:07:57;;;;;;;12.57;5.00;;;;;;;19.23;95.13;101429.50;5056240;28;20037;-67
2023/06/22 01:10:45;;;;;;;12.00;5.40;;;;;;;19.27;95.25;101427.13;5056273;28;20036;-66
2023/06/22 01:13:35;;;;;;;11.90;4.30;;;;;;;19.25;95.13;101428.22;5035685;28;20056;-67
2023/06/22 01:16:16;;;;;;;10.57;4.15;;;;;;;19.17;95.11;101406.78;5054289;28;20511;-67
2023/06/22 01:18:43;;;;;;;13.02;4.88;;;;;;;19.19;95.40;101407.34;5054567;28;20029;-66
2023/06/22 01:21:13;;;;;;;13.10;5.25;;;;;;;19.23;96.17;101430.34;5053887;28;20071;-67
2023/06/22 01:23:54;;;;;;;14.30;5.18;;;;;;;19.29;96.25;101427.72;5055500;28;20028;-66
2023/06/22 01:26:42;;;;;;;13.50;5.50;;;;;;;19.29;95.99;101441.38;5055343;28;20036;-66
2023/06/22 01:29:11;;;;;;;12.38;4.53;;;;;;;19.26;96.20;101445.41;5054179;28;20032;-67
2023/06/22 01:31:39;;;;;;;16.30;4.85;;;;;;;19.27;96.33;101443.50;5055696;28;20427;-67
2023/06/22 01:34:07;;;;;;;12.20;4.85;;;;;;;19.20;96.95;101444.50;5055609;28;20029;-66
2023/06/22 01:36:34;;;;;;;15.65;4.80;;;;;;;19.23;96.94;101449.44;5053978;28;20031;-67
2023/06/22 01:39:01;;;;;;;15.68;4.80;;;;;;;19.23;96.85;101443.16;5054132;28;20025;-66
2023/06/22 01:41:29;;;;;;;19.42;5.03;;;;;;;19.24;97.39;101442.94;5055781;28;20108;-67
2023/06/22 01:43:56;;;;;;;20.05;5.03;;;;;;;19.22;97.59;101447.78;5055444;28;20029;-66
2023/06/22 01:46:22;;;;;;;14.60;5.03;;;;;;;19.23;97.81;101443.97;5053737;28;20046;-67
2023/06/22 01:48:48;;;;;;;14.13;5.63;;;;;;;19.25;98.11;101454.66;5055677;28;20032;-66
2023/06/22 01:51:14;;;;;;;13.82;5.03;;;;;;;19.23;98.38;101452.16;5054933;28;20021;-66
2023/06/22 01:53:39;;;;;;;16.65;5.13;;;;;;;19.18;98.11;101440.34;5037291;28;20029;-67
2023/06/22 01:56:05;;;;;;;11.68;4.85;;;;;;;19.16;98.22;101435.09;5054108;28;20039;-67
2023/06/22 01:58:32;;;;;;;16.42;5.45;;;;;;;19.21;98.85;101453.50;5058030;28;20395;-66
2023/06/22 02:01:11;;;;;;;11.85;4.60;;;;;;;19.27;98.71;101454.41;5059284;28;20040;-66
2023/06/22 02:03:44;;;;;;;17.27;5.20;;;;;;;19.26;98.77;101459.03;5058985;28;20043;-66
2023/06/22 02:06:35;;;;;;;15.30;4.60;;;;;;;19.30;98.58;101456.66;5054549;28;20039;-66
2023/06/22 02:09:04;;;;;;;17.15;5.32;;;;;;;19.27;98.91;101454.41;5061943;28;20021;-67
2023/06/22 02:11:31;;;;;;;12.98;4.60;;;;;;;19.23;98.93;101440.44;5062678;28;20021;-66
2023/06/22 02:13:57;;;;;;;19.08;5.40;;;;;;;19.26;99.23;101445.41;5059070;28;20040;-66
2023/06/22 02:16:23;;;;;;;11.93;4.50;;;;;;;19.28;99.57;101461.56;5057773;28;20037;-67
2023/06/22 02:18:53;;;;;;;12.05;4.63;;;;;;;19.30;99.25;101453.94;5058985;28;20480;-67
2023/06/22 02:21:19;;;;;;;13.82;4.78;;;;;;;19.24;99.70;101456.56;5059047;28;20024;-67
2023/06/22 02:23:45;;;;;;;10.65;4.32;;;;;;;19.33;99.59;101459.72;5041403;28;20028;-67
2023/06/22 02:26:11;;;;;;;16.98;5.47;;;;;;;19.41;98.69;101466.72;5060860;28;20380;-68
2023/06/22 02:28:37;;;;;;;14.32;5.28;;;;;;;19.42;98.94;101471.13;5065569;28;20083;-70
2023/06/22 02:31:03;;;;;;;9.80;4.70;;;;;;;19.35;99.29;101468.53;5066000;28;20044;-70
2023/06/22 02:33:28;;;;;;;13.18;4.88;;;;;;;19.34;99.56;101471.50;5065717;28;20084;-73
2023/06/22 02:35:54;;;;;;;14.02;5.20;;;;;;;19.23;98.98;101443.97;5065088;28;20033;-68
2023/06/22 02:38:19;;;;;;;23.55;5.10;;;;;;;19.40;98.85;101470.50;5066436;28;20044;-68
2023/06/22 02:40:45;;;;;;;15.23;5.03;;;;;;;19.38;99.09;101473.50;5065048;28;20167;-67
2023/06/22 02:43:11;;;;;;;8.55;4.03;;;;;;;19.41;98.48;101474.91;5066092;28;20029;-67
2023/06/22 02:45:36;;;;;;;14.23;4.35;;;;;;;19.37;98.88;101471.00;5062754;28;20049;-71
2023/06/22 02:48:02;;;;;;;15.30;5.20;;;;;;;19.44;97.80;101472.53;5058148;28;20033;-67
2023/06/22 02:50:27;;;;;;;12.98;4.88;;;;;;;19.50;97.69;101473.44;5043110;28;20033;-66
2023/06/22 02:52:52;;;;;;;14.75;5.05;;;;;;;19.47;98.15;101487.59;5058604;28;20041;-67
2023/06/22 02:55:18;;;;;;;14.48;4.70;;;;;;;19.50;97.94;101476.19;5058778;28;20031;-66
2023/06/22 02:57:44;;;;;;;13.07;4.53;;;;;;;19.57;97.76;101489.69;5056622;28;20037;-67
2023/06/22 03:00:19;;;;;;;15.35;5.00;;;;;;;19.56;97.66;101486.13;5039374;28;20033;-67
2023/06/22 03:02:48;;;;;;;18.80;4.93;;;;;;;19.62;97.15;101490.63;5057646;28;20056;-66
2023/06/22 03:05:15;;;;;;;12.50;5.15;;;;;;;19.62;97.15;101487.06;5058252;28;20085;-66
2023/06/22 03:07:41;;;;;;;16.45;5.00;;;;;;;19.58;97.41;101489.47;5056157;28;20033;-66
2023/06/22 03:10:11;;;;;;;15.70;5.13;;;;;;;19.68;97.18;101494.34;5056468;28;20485;-67
2023/06/22 03:12:38;;;;;;;16.73;5.40;;;;;;;19.71;96.57;101493.84;5056600;28;20061;-66
2023/06/22 03:15:11;;;;;;;19.63;5.20;;;;;;;19.59;97.00;101482.09;5057619;28;20033;-67
2023/06/22 03:17:38;;;;;;;12.65;4.63;;;;;;;19.55;96.90;101483.66;5058264;28;20035;-66
2023/06/22 03:20:11;;;;;;;19.30;5.25;;;;;;;19.54;97.29;101496.47;5042751;28;20119;-67
2023/06/22 03:22:41;;;;;;;16.30;4.30;;;;;;;19.64;96.47;101504.09;5040511;28;20390;-66
2023/06/22 03:25:13;;;;;;;16.00;5.20;;;;;;;19.67;96.27;101507.16;5057770;28;20082;-66
2023/06/22 03:27:42;;;;;;;15.88;5.03;;;;;;;19.65;96.13;101505.72;5057706;28;20033;-66
2023/06/22 03:30:09;;;;;;;14.35;4.90;;;;;;;19.55;97.22;101500.03;5055387;28;20055;-66
2023/06/22 03:32:35;;;;;;;18.05;5.15;;;;;;;19.68;96.40;101508.81;5056742;28;20102;-66
2023/06/22 03:35:01;;;;;;;14.23;4.95;;;;;;;19.73;96.12;101516.25;5056022;28;20041;-67
2023/06/22 03:37:27;;;;;;;14.80;4.47;;;;;;;19.75;95.97;101511.41;5037094;28;20160;-66
2023/06/22 03:39:53;;;;;;;13.20;5.00;;;;;;;19.78;95.65;101521.00;5053956;28;20056;-67
2023/06/22 03:42:18;;;;;;;16.88;5.82;;;;;;;19.77;95.62;101522.91;5039236;28;20025;-66
2023/06/22 03:44:44;;;;;;;16.13;4.72;;;;;;;19.75;95.63;101519.59;5056150;28;20060;-66
2023/06/22 03:47:09;;;;;;;13.95;5.07;;;;;;;19.65;95.38;101517.47;5055498;28;20048;-67
2023/06/22 03:49:35;;;;;;;15.88;4.97;;;;;;;19.82;94.68;101533.09;5055548;28;20059;-67
2023/06/22 03:52:02;;;;;;;16.40;4.88;;;;;;;19.82;94.38;101538.56;5056337;28;20029;-67
2023/06/22 03:54:29;;;;;;;11.48;4.70;;;;;;;19.81;94.62;101536.91;5057068;28;20444;-66
2023/06/22 03:56:54;;;;;;;15.38;4.78;;;;;;;19.91;94.18;101526.19;5056371;28;20033;-66
2023/06/22 03:59:20;;;;;;;14.68;4.40;;;;;;;19.94;94.00;101536.63;5038611;28;20098;-66
2023/06/22 04:01:46;;;;;;;19.15;5.20;;;;;;;19.95;94.24;101535.53;5057048;28;20025;-67
2023/06/22 04:04:12;;;;;;;16.73;4.85;;;;;;;19.98;94.09;101536.97;5055173;28;20035;-66
2023/06/22 04:06:38;;;;;;;14.40;4.75;;;;;;;20.01;93.96;101531.00;5054823;28;20059;-66
2023/06/22 04:09:03;;;;;;;15.27;4.70;;;;;;;20.04;94.01;101536.81;5052682;28;20425;-67
2023/06/22 04:11:28;;;;;;;12.40;4.50;;;;;;;20.09;93.76;101534.16;5055210;28;20044;-66
2023/06/22 04:13:54;;;;;;;12.10;4.75;;;;;;;20.12;93.55;101536.41;5054524;28;20039;-67
2023/06/22 04:16:19;;;;;;;14.88;4.32;;;;;;;20.12;93.58;101539.13;5055407;28;20035;-69
2023/06/22 04:18:45;;;;;;;16.42;5.10;;;;;;;20.14;93.24;101537.00;5052689;28;20044;-67
2023/06/22 04:21:10;;;;;;;20.83;5.28;;;;;;;20.17;92.72;101538.41;5054882;28;20361;-67
2023/06/22 04:23:36;;;;;;;14.10;4.82;;;;;;;20.08;92.83;101537.16;5035645;28;20039;-67
2023/06/22 04:26:01;;;;;;;15.75;4.72;;;;;;;20.24;92.20;101533.63;5055398;28;20025;-67
2023/06/22 04:28:27;;;;;;;15.32;5.10;;;;;;;20.59;90.48;101538.91;5054094;28;20037;-67
2023/06/22 04:30:52;;;;;;;15.57;4.90;;;;;;;20.52;90.92;101540.16;5049405;28;20021;-67
2023/06/22 04:33:18;;;;;;;20.65;5.32;;;;;;;20.39;91.74;101533.88;5054915;28;20052;-67
2023/06/22 04:35:46;;;;;;;14.88;4.68;;;;;;;20.26;92.07;101515.06;5054867;28;20028;-67
2023/06/22 04:38:13;;;;;;;17.55;4.68;;;;;;;20.37;92.00;101532.50;5054750;28;20048;-67
2023/06/22 04:40:39;;;;;;;15.50;5.18;;;;;;;20.29;92.61;101536.44;5052554;28;20139;-67
2023/06/22 04:43:06;;;;;;;14.00;5.20;;;;;;;20.32;92.67;101535.13;5054453;28;20099;-67
2023/06/22 04:45:33;;;;;;;10.23;4.53;;;;;;;20.18;93.72;101542.81;5037579;28;20056;-67
2023/06/22 04:47:58;;;;;;;11.98;5.05;;;;;;;20.16;93.85;101545.78;5053195;28;20029;-67
2023/06/22 04:50:24;;;;;;;13.32;4.95;;;;;;;20.24;93.41;101547.28;5055180;28;20035;-68
2023/06/22 04:52:50;;;;;;;10.68;4.60;;;;;;;20.23;93.47;101545.66;5055235;28;20036;-67
2023/06/22 04:55:19;;;;;;;13.65;4.63;;;;;;;20.34;93.39;101546.66;5038278;28;20036;-67
2023/06/22 04:57:48;;;;;;;16.38;5.20;;;;;;;20.42;93.29;101538.84;5053782;28;20036;-68
2023/06/22 05:00:23;;;;;;;13.85;5.57;;;;;;;20.49;92.68;101535.97;5055372;28;20056;-67
2023/06/22 05:02:49;;;;;;;11.82;4.75;;;;;;;20.48;92.75;101536.22;5019768;28;20104;-67
2023/06/22 05:05:15;;;;;;;13.63;5.38;;;;;;;20.46;92.45;101533.72;5054687;28;20060;-67
2023/06/22 05:07:50;;;;;;;17.05;4.93;;;;;;;20.48;92.95;101549.88;5054222;28;20059;-67
2023/06/22 05:10:16;;;;;;;11.77;5.05;;;;;;;20.49;92.70;101541.44;5052972;28;20032;-67
2023/06/22 05:12:41;;;;;;;12.95;5.25;;;;;;;20.62;92.14;101543.88;5051833;28;20116;-67
2023/06/22 05:15:08;;;;;;;12.45;5.00;;;;;;;20.49;92.43;101510.53;5052824;28;20025;-67
2023/06/22 05:17:34;;;;;;;14.00;5.03;;;;;;;20.60;92.49;101542.50;5054087;28;20119;-67
2023/06/22 05:19:59;;;;;;;12.82;4.93;;;;;;;20.60;92.55;101537.03;5054038;28;20025;-66
2023/06/22 05:22:25;;;;;;;14.05;5.22;;;;;;;20.68;91.89;101542.06;5050464;28;20032;-67
2023/06/22 05:24:50;;;;;;;12.93;5.20;;;;;;;20.74;92.13;101545.72;5056235;28;20033;-67
2023/06/22 05:27:16;;;;;;;11.90;4.90;;;;;;;20.77;91.72;101546.03;5053834;28;20476;-67
2023/06/22 05:29:42;;;;;;;12.23;4.80;;;;;;;20.76;91.87;101541.66;5035651;28;20509;-67
2023/06/22 05:32:08;;;;;;;14.60;5.20;;;;;;;20.58;92.90;101529.03;5060665;28;20279;-66
2023/06/22 05:34:33;;;;;;;14.43;5.10;;;;;;;20.68;92.67;101530.28;5062090;28;20029;-67
2023/06/22 05:36:59;;;;;;;14.90;5.40;;;;;;;20.70;92.43;101539.09;5058849;28;20037;-66
2023/06/22 05:39:25;;;;;;;11.35;5.03;;;;;;;20.88;91.67;101545.13;5063013;28;20518;-67
2023/06/22 05:41:51;;;;;;;11.75;4.80;;;;;;;20.94;91.60;101540.56;5060731;28;20024;-66
2023/06/22 05:44:16;;;;;;;11.90;4.75;;;;;;;21.11;90.38;101546.81;5062098;28;20028;-68
2023/06/22 05:46:48;;;;;;;12.15;4.82;;;;;;;21.14;90.61;101537.28;5060613;28;20053;-68
2023/06/22 05:49:14;;;;;;;15.77;4.85;;;;;;;21.31;90.11;101540.81;5059263;28;20029;-68
2023/06/22 05:51:40;;;;;;;15.93;4.65;;;;;;;21.22;90.00;101538.75;5061544;28;20179;-68
2023/06/22 05:54:05;;;;;;;14.13;4.82;;;;;;;21.29;89.53;101536.66;5060741;28;20025;-67
2023/06/22 05:56:31;;;;;;;11.18;4.80;;;;;;;21.33;89.78;101551.53;5062339;28;20040;-67
2023/06/22 05:58:56;;;;;;;12.98;4.70;;;;;;;21.50;89.13;101549.59;5061952;28;20025;-67
2023/06/22 06:01:22;;;;;;;10.82;4.60;;;;;;;21.46;89.03;101540.25;5061217;28;20031;-67
2023/06/22 06:03:49;;;;;;;19.23;5.40;;;;;;;21.56;88.59;101548.59;5060934;28;20037;-67
2023/06/22 06:06:15;;;;;;;9.90;4.93;;;;;;;21.57;88.82;101546.66;5061389;28;20031;-68
2023/06/22 06:08:41;;;;;;;14.35;4.80;;;;;;;21.75;87.36;101540.03;5060620;28;20021;-68
2023/06/22 06:11:06;;;;;;;10.25;4.40;;;;;;;21.66;87.67;101547.88;5055462;28;20028;-72
2023/06/22 06:13:32;;;;;;;13.25;5.22;;;;;;;21.79;87.52;101546.66;5058736;28;20092;-69
2023/06/22 06:15:59;;;;;;;14.88;4.90;;;;;;;22.18;85.72;101550.13;5060206;28;20036;-69
2023/06/22 06:18:24;;;;;;;12.63;4.80;;;;;;;22.41;84.92;101548.16;5044503;28;20104;-69
2023/06/22 06:20:51;;;;;;;14.55;5.30;;;;;;;22.51;83.68;101559.22;5062438;28;20032;-69
2023/06/22 06:23:16;;;;;;;10.93;4.57;;;;;;;22.32;84.05;101556.03;5062555;28;20021;-69
2023/06/22 06:25:42;;;;;;;10.07;4.50;;;;;;;22.33;84.12;101563.16;5061691;28;20021;-69
2023/06/22 06:28:07;;;;;;;15.82;5.25;;;;;;;22.44;83.11;101553.94;5063154;28;20075;-68
2023/06/22 06:30:33;;;;;;;9.63;4.30;;;;;;;22.56;82.87;101561.19;5065938;28;20052;-69
2023/06/22 06:32:58;;;;;;;17.55;5.18;;;;;;;22.74;81.87;101564.34;5066931;28;20025;-69
2023/06/22 06:35:24;;;;;;;13.88;4.90;;;;;;;22.89;81.17;101566.41;5065448;28;20025;-69
2023/06/22 06:37:50;;;;;;;17.67;5.03;;;;;;;22.67;81.28;101554.69;5065611;28;20054;-69
2023/06/22 06:40:17;;;;;;;11.73;4.80;;;;;;;22.67;81.34;101573.88;5066525;28;20040;-69
2023/06/22 06:42:48;;;;;;;12.20;4.70;;;;;;;22.90;80.63;101576.28;5064166;28;20056;-68
2023/06/22 06:45:22;;;;;;;11.75;4.70;;;;;;;23.06;80.02;101573.69;5068378;28;20077;-69
2023/06/22 06:47:49;;;;;;;12.77;4.72;;;;;;;23.18;79.26;101564.16;5060278;28;20060;-70
2023/06/22 06:50:15;;;;;;;11.93;4.55;;;;;;;23.14;78.83;101557.53;5054425;28;20074;-68
2023/06/22 06:52:41;;;;;;;10.50;4.38;;;;;;;23.05;78.89;101564.63;5061442;28;20024;-68
2023/06/22 06:55:10;;;;;;;12.23;4.60;;;;;;;23.28;78.29;101574.38;5060249;28;20021;-69
2023/06/22 06:57:37;;;;;;;13.85;4.35;;;;;;;23.50;77.61;101578.88;5060412;28;20025;-68
2023/06/22 07:00:09;;;;;;;12.20;4.53;;;;;;;23.58;77.11;101583.88;5058386;28;20078;-67
2023/06/22 07:02:34;;;;;;;9.98;4.18;;;;;;;23.51;77.16;101578.63;5062418;28;20028;-67
2023/06/22 07:05:00;;;;;;;9.43;4.53;;;;;;;23.50;76.97;101576.94;5062059;28;20123;-68
2023/06/22 07:07:25;;;;;;;12.95;4.63;;;;;;;23.19;77.11;101564.97;5061338;28;20067;-67
2023/06/22 07:09:51;;;;;;;17.17;4.90;;;;;;;23.07;77.55;101580.81;5060078;28;20036;-69
2023/06/22 07:12:16;;;;;;;14.55;4.18;;;;;;;22.97;78.24;101579.66;5061509;28;20112;-68
2023/06/22 07:14:41;;;;;;;11.38;4.68;;;;;;;23.01;78.04;101559.91;5043274;28;20033;-69
2023/06/22 07:17:07;;;;;;;9.65;4.18;;;;;;;22.95;78.22;101568.13;5058260;28;20083;-68
2023/06/22 07:19:33;;;;;;;13.45;4.55;;;;;;;22.95;78.57;101575.53;5058042;28;20131;-68
2023/06/22 07:21:58;;;;;;;11.43;4.47;;;;;;;22.73;79.45;101583.81;5058274;28;20029;-68
2023/06/22 07:24:24;;;;;;;14.13;4.95;;;;;;;23.08;78.53;101586.06;5060143;28;20025;-68
2023/06/22 07:26:50;;;;;;;13.30;4.78;;;;;;;23.18;78.02;101577.06;5058571;28;20500;-68
2023/06/22 07:29:17;;;;;;;15.48;4.82;;;;;;;23.20;77.70;101577.59;5059465;28;20029;-68
2023/06/22 07:31:43;;;;;;;11.20;4.22;;;;;;;23.41;77.15;101579.41;5042534;28;20483;-69
2023/06/22 07:34:09;;;;;;;10.63;4.30;;;;;;;23.62;76.35;101579.50;5058701;28;20090;-67
2023/06/22 07:36:35;;;;;;;14.18;4.50;;;;;;;23.63;76.07;101581.97;5057689;28;20530;-67
2023/06/22 07:39:04;;;;;;;13.50;4.57;;;;;;;23.75;75.28;101579.03;5055707;28;20020;-67
2023/06/22 07:41:30;;;;;;;12.23;4.32;;;;;;;23.77;75.06;101582.31;5057137;28;20040;-67
2023/06/22 07:43:55;;;;;;;11.73;4.13;;;;;;;23.74;75.28;101590.28;5057412;28;20558;-67
2023/06/22 07:46:21;;;;;;;12.00;4.30;;;;;;;23.74;74.75;101584.78;5055593;28;20120;-67
2023/06/22 07:48:47;;;;;;;8.38;4.30;;;;;;;23.48;75.36;101575.56;5056891;28;20032;-67
2023/06/22 07:51:12;;;;;;;13.20;4.50;;;;;;;23.63;74.58;101584.72;5041693;28;20033;-67
2023/06/22 07:53:40;;;;;;;13.60;4.18;;;;;;;23.39;74.74;101589.00;5056187;28;20551;-67
2023/06/22 07:56:07;;;;;;;11.90;4.53;;;;;;;23.18;75.38;101582.56;5055249;28;20029;-67
2023/06/22 07:58:33;;;;;;;13.88;4.25;;;;;;;23.32;75.19;101583.72;5056890;28;20123;-67
2023/06/22 08:00:58;;;;;;;9.77;4.53;;;;;;;23.27;75.81;101583.69;5055312;28;20036;-67
2023/06/22 08:03:24;;;;;;;12.85;4.43;;;;;;;23.48;75.39;101583.81;5055118;28;20025;-67
2023/06/22 08:05:49;;;;;;;9.70;4.00;;;;;;;23.64;74.91;101580.03;5055965;28;20147;-67
2023/06/22 08:08:15;;;;;;;12.38;3.90;;;;;;;23.58;74.76;101583.88;5052355;28;20178;-67
2023/06/22 08:10:42;;;;;;;10.35;4.20;;;;;;;23.71;74.45;101591.66;5054889;28;20606;-67
2023/06/22 08:13:07;;;;;;;9.75;4.30;;;;;;;23.51;73.90;101584.13;5056315;28;20349;-66
2023/06/22 08:15:34;;;;;;;12.52;4.00;;;;;;;23.68;73.80;101592.19;5055369;28;20029;-67
2023/06/22 08:18:00;;;;;;;10.45;3.75;;;;;;;23.86;73.02;101594.47;5038301;28;20029;-67
2023/06/22 08:20:26;;;;;;;9.65;4.25;;;;;;;23.87;72.38;101598.88;5055823;28;20039;-67
2023/06/22 08:22:53;;;;;;;11.18;3.95;;;;;;;23.92;72.28;101596.13;5055392;28;20357;-67
2023/06/22 08:25:19;;;;;;;8.23;3.38;;;;;;;23.66;71.02;101586.09;5053660;28;20024;-67
2023/06/22 08:27:46;;;;;;;10.07;3.70;;;;;;;23.74;71.05;101604.03;5053435;28;20048;-66
2023/06/22 08:30:12;;;;;;;10.07;3.70;;;;;;;23.87;71.11;101604.38;5053178;28;20064;-67
2023/06/22 08:32:38;;;;;;;7.60;3.30;;;;;;;24.00;70.54;101596.72;5054186;28;20510;-67
2023/06/22 08:35:03;;;;;;;9.82;3.90;;;;;;;23.98;70.17;101607.97;5054331;28;20032;-67
2023/06/22 08:37:35;;;;;;;6.05;3.25;;;;;;;23.81;70.47;101605.44;5055031;28;20037;-67
2023/06/22 08:40:08;;;;;;;9.95;3.78;;;;;;;23.59;71.28;101602.81;5054264;28;20045;-67
2023/06/22 08:42:34;;;;;;;6.70;3.53;;;;;;;23.44;71.83;101606.34;5056216;28;20482;-67
2023/06/22 08:44:59;;;;;;;7.30;3.55;;;;;;;23.69;71.52;101613.06;5036925;28;20095;-67
2023/06/22 08:47:27;;;;;;;12.15;3.40;;;;;;;23.94;70.69;101617.03;5054284;28;20543;-67
2023/06/22 08:49:53;;;;;;;6.18;2.70;;;;;;;23.56;70.86;101611.59;5054718;28;20114;-67
2023/06/22 08:52:19;;;;;;;8.73;3.25;;;;;;;23.70;70.80;101620.22;5054894;28;20037;-67
2023/06/22 08:54:45;;;;;;;7.55;3.28;;;;;;;23.79;70.55;101624.13;5054664;28;20586;-67
2023/06/22 08:57:11;;;;;;;8.73;3.42;;;;;;;23.92;70.59;101618.13;5057415;28;20055;-68
2023/06/22 08:59:36;;;;;;;8.45;3.50;;;;;;;23.91;70.73;101626.66;5062417;28;20491;-68
2023/06/22 09:02:02;;;;;;;8.75;3.30;;;;;;;23.79;70.40;101613.13;5057064;28;20021;-67
2023/06/22 09:04:27;;;;;;;7.00;3.20;;;;;;;23.68;70.33;101604.00;5055038;28;20033;-67
2023/06/22 09:06:53;;;;;;;6.93;3.08;;;;;;;23.82;70.90;101626.34;5037706;28;20039;-67
2023/06/22 09:09:19;;;;;;;8.77;3.72;;;;;;;23.45;71.53;101605.22;5056459;28;20028;-67
2023/06/22 09:11:44;;;;;;;8.07;3.88;;;;;;;23.63;71.97;101617.69;5054790;28;20029;-66
2023/06/22 09:14:11;;;;;;;13.90;3.88;;;;;;;23.83;71.64;101625.22;5055472;28;20036;-67
2023/06/22 09:16:36;;;;;;;8.00;3.45;;;;;;;23.91;71.11;101615.66;5053951;28;20025;-68
2023/06/22 09:19:02;;;;;;;8.48;3.50;;;;;;;23.94;71.31;101614.28;5054609;28;20035;-67
2023/06/22 09:21:28;;;;;;;8.73;3.28;;;;;;;23.86;71.56;101621.94;5056133;28;20426;-67
2023/06/22 09:23:53;;;;;;;10.35;3.60;;;;;;;23.82;71.61;101620.84;5056891;28;20035;-68
2023/06/22 09:26:19;;;;;;;6.18;3.25;;;;;;;24.01;71.85;101603.88;5019676;28;20041;-66
2023/06/22 09:28:44;;;;;;;9.63;3.20;;;;;;;23.59;72.80;101613.81;5052710;28;20035;-67
2023/06/22 09:31:10;;;;;;;7.13;3.25;;;;;;;23.73;73.04;101614.19;5053253;28;20400;-68
2023/06/22 09:33:37;;;;;;;6.80;3.22;;;;;;;23.73;72.49;101611.44;5052237;28;20037;-67
2023/06/22 09:36:07;;;;;;;8.23;3.30;;;;;;;23.60;72.66;101590.75;5055414;28;20028;-68
2023/06/22 09:38:35;;;;;;;7.90;3.65;;;;;;;23.54;73.00;101601.97;5052959;28;20039;-68
2023/06/22 09:41:00;;;;;;;7.30;3.70;;;;;;;23.44;73.60;101611.81;5053540;28;20151;-67
2023/06/22 09:43:27;;;;;;;11.70;3.53;;;;;;;23.22;74.10;101602.91;5053834;28;20056;-67
2023/06/22 09:45:52;;;;;;;8.07;3.60;;;;;;;23.06;74.27;101607.44;5052022;28;20053;-67
2023/06/22 09:48:17;;;;;;;7.07;3.42;;;;;;;23.19;74.17;101600.69;5051841;28;20375;-67
2023/06/22 09:50:43;;;;;;;10.23;3.83;;;;;;;23.39;73.98;101605.47;5050670;28;20029;-67
2023/06/22 09:53:09;;;;;;;8.88;3.60;;;;;;;23.37;74.25;101611.22;5034738;28;20029;-66
2023/06/22 09:55:34;;;;;;;7.38;3.30;;;;;;;23.45;74.07;101607.97;5053263;28;20082;-67
2023/06/22 09:58:00;;;;;;;7.05;3.20;;;;;;;23.24;73.91;101566.91;5054204;28;20462;-67
2023/06/22 10:00:26;;;;;;;5.43;3.08;;;;;;;23.63;73.88;101605.88;5055119;28;20033;-67
2023/06/22 10:02:52;;;;;;;7.50;3.10;;;;;;;23.67;72.76;101593.25;5054004;28;20032;-67
2023/06/22 10:05:17;;;;;;;9.20;3.72;;;;;;;24.07;71.92;101620.13;5054926;28;20033;-72
2023/06/22 10:07:43;;;;;;;8.65;3.80;;;;;;;24.26;71.39;101617.69;5061960;28;20029;-71
2023/06/22 10:10:12;;;;;;;10.98;3.80;;;;;;;24.45;70.35;101623.53;5060110;28;20024;-72
2023/06/22 10:12:54;;;;;;;7.50;3.00;;;;;;;24.48;70.62;101623.00;5054023;28;20025;-69
2023/06/22 10:15:21;;;;;;;8.05;3.53;;;;;;;24.48;70.42;101617.50;5055248;28;20028;-68
2023/06/22 10:17:46;;;;;;;7.60;3.10;;;;;;;24.60;69.47;101593.31;5055531;28;20033;-69
2023/06/22 10:20:13;;;;;;;7.43;3.55;;;;;;;24.61;69.68;101616.13;5058047;28;20483;-69
2023/06/22 10:22:43;;;;;;;9.45;4.22;;;;;;;24.35;70.15;101621.56;5058921;28;20075;-71
2023/06/22 10:25:09;;;;;;;9.52;3.67;;;;;;;24.02;71.64;101611.84;5057454;28;20033;-69
2023/06/22 10:27:35;;;;;;;8.43;3.90;;;;;;;24.35;71.76;101616.06;5057531;28;20063;-69
2023/06/22 10:30:01;;;;;;;13.30;4.60;;;;;;;24.47;71.53;101610.34;5054766;28;20029;-69
2023/06/22 10:32:28;;;;;;;8.45;4.20;;;;;;;24.70;71.03;101616.41;5057545;28;20093;-68
2023/06/22 10:34:54;;;;;;;10.52;4.88;;;;;;;24.46;72.66;101625.19;5058000;28;20029;-69
2023/06/22 10:37:19;;;;;;;10.98;5.20;;;;;;;24.61;71.71;101618.88;5060657;28;20048;-68
2023/06/22 10:39:45;;;;;;;9.65;4.65;;;;;;;24.74;71.56;101604.59;5058337;28;20074;-68
2023/06/22 10:42:11;;;;;;;11.60;5.18;;;;;;;24.96;70.51;101620.00;5057278;28;20128;-69
2023/06/22 10:44:38;;;;;;;9.30;5.32;;;;;;;24.83;70.33;101627.72;5056308;28;20124;-68
2023/06/22 10:47:04;;;;;;;10.15;5.10;;;;;;;24.64;71.24;101623.84;5058931;28;20053;-68
2023/06/22 10:49:29;;;;;;;12.27;5.30;;;;;;;24.58;72.21;101631.25;5043797;28;20063;-69
2023/06/22 10:51:55;;;;;;;15.30;5.95;;;;;;;24.53;72.68;101633.16;5064521;28;20025;-69
2023/06/22 10:54:20;;;;;;;10.27;5.50;;;;;;;24.18;74.82;101631.16;5062703;28;20036;-69
2023/06/22 10:56:46;;;;;;;12.32;5.93;;;;;;;24.23;74.70;101623.72;5061808;28;20044;-69
2023/06/22 10:59:11;;;;;;;10.32;5.35;;;;;;;24.25;74.41;101620.72;5061506;28;20092;-69
2023/06/22 11:01:37;;;;;;;11.70;5.88;;;;;;;24.21;74.57;101622.38;5062540;28;20403;-69
2023/06/22 11:04:03;;;;;;;11.38;5.50;;;;;;;24.41;74.04;101636.19;5066518;28;20040;-68
2023/06/22 11:06:29;;;;;;;7.18;4.97;;;;;;;24.49;72.97;101627.38;5065662;28;20111;-68
2023/06/22 11:08:54;;;;;;;15.15;6.03;;;;;;;24.59;71.13;101607.31;5060880;28;20263;-68
2023/06/22 11:11:20;;;;;;;12.20;5.55;;;;;;;24.80;71.14;101622.75;5065103;28;20025;-69
2023/06/22 11:13:45;;;;;;;14.48;6.03;;;;;;;24.77;70.47;101623.31;5064670;28;20507;-69
2023/06/22 11:16:11;;;;;;;14.82;6.22;;;;;;;24.71;70.58;101626.31;5065019;28;20021;-68
2023/06/22 11:18:37;;;;;;;11.07;5.78;;;;;;;24.73;70.70;101622.19;5060963;28;20045;-68